Time;durP1;ratioP1;P1;durP2;ratioP2;P2;SDS_P1;SDS_P2;PMS_P1;PMS_P2;Temp;Humidity;BMP_temperature;BMP_pressure;BME280_temperature;BME280_humidity;BME280_pressure;Samples;Min_cycle;Max_cycle;Signal;HPM_P1;HPM_P2
2021/03/27 00:00:59;;;;;;;1.53;0.20;;;12.30;97.80;;;;;;5067861;28;20541;-58
2021/03/27 00:03:48;;;;;;;1.50;0.20;;;12.20;97.80;;;;;;5064013;28;20435;-59
2021/03/27 00:06:46;;;;;;;1.50;0.20;;;12.30;97.80;;;;;;5071988;28;20431;-59
2021/03/27 00:09:55;;;;;;;24.83;4.43;;;12.30;97.90;;;;;;5069171;28;20442;-59
2021/03/27 00:12:37;;;;;;;1.57;0.20;;;12.30;97.90;;;;;;5070368;28;20929;-60
2021/03/27 00:15:23;;;;;;;1.50;0.20;;;12.30;98.00;;;;;;5067709;28;20469;-60
2021/03/27 00:18:17;;;;;;;1.50;0.20;;;12.30;97.80;;;;;;5075590;28;20553;-60
2021/03/27 00:20:46;;;;;;;1.50;0.20;;;12.40;97.90;;;;;;5076832;28;20822;-58
2021/03/27 00:23:20;;;;;;;1.80;0.50;;;12.30;98.00;;;;;;5077629;28;20474;-60
2021/03/27 00:26:06;;;;;;;4.20;3.90;;;12.20;98.20;;;;;;5079124;28;20447;-60
2021/03/27 00:28:41;;;;;;;1.50;0.20;;;12.20;98.20;;;;;;5071908;28;20434;-60
2021/03/27 00:31:16;;;;;;;1.50;0.20;;;12.20;98.60;;;;;;5073365;28;20474;-59
2021/03/27 00:34:05;;;;;;;1.50;0.20;;;12.20;98.20;;;;;;5073207;28;20484;-59
2021/03/27 00:36:40;;;;;;;1.57;0.20;;;12.20;98.20;;;;;;5071292;28;20498;-58
2021/03/27 00:39:18;;;;;;;1.50;0.20;;;12.20;98.30;;;;;;5072343;28;20986;-60
2021/03/27 00:41:55;;;;;;;1.60;0.33;;;12.20;98.40;;;;;;5070652;28;20462;-59
2021/03/27 00:44:26;;;;;;;3.47;2.20;;;12.10;98.50;;;;;;5075634;28;20513;-59
2021/03/27 00:46:52;;;;;;;3.10;1.07;;;12.10;98.70;;;;;;5072206;28;20449;-59
2021/03/27 00:49:22;;;;;;;9.23;5.47;;;12.10;98.80;;;;;;5068407;28;20438;-59
2021/03/27 00:52:00;;;;;;;1.50;0.20;;;12.10;98.90;;;;;;5074191;28;20426;-58
2021/03/27 00:54:31;;;;;;;2.07;0.53;;;12.10;99.00;;;;;;5073410;28;20430;-59
2021/03/27 00:57:01;;;;;;;2.83;1.27;;;12.10;99.10;;;;;;5073822;28;20458;-59
2021/03/27 00:59:29;;;;;;;3.77;1.90;;;12.10;99.00;;;;;;5074498;28;20438;-59
2021/03/27 01:01:57;;;;;;;2.60;1.23;;;12.10;99.10;;;;;;5072660;28;20475;-59
2021/03/27 01:04:29;;;;;;;1.50;0.20;;;12.20;99.10;;;;;;5072000;28;20516;-59
2021/03/27 01:06:59;;;;;;;2.20;0.97;;;12.20;99.10;;;;;;5074201;28;20940;-59
2021/03/27 01:09:29;;;;;;;6.50;4.07;;;12.20;99.10;;;;;;5067962;28;20925;-59
2021/03/27 01:12:02;;;;;;;1.53;0.20;;;12.30;99.00;;;;;;5056957;28;20435;-59
2021/03/27 01:14:38;;;;;;;2.50;0.90;;;12.30;99.00;;;;;;5070616;28;20956;-59
2021/03/27 01:17:05;;;;;;;2.43;0.50;;;12.30;99.10;;;;;;5073168;28;20462;-60
2021/03/27 01:19:35;;;;;;;2.10;1.20;;;12.30;98.90;;;;;;5072110;28;20442;-59
2021/03/27 01:22:05;;;;;;;2.70;1.13;;;12.40;98.90;;;;;;5073656;28;20968;-59
2021/03/27 01:24:30;;;;;;;2.43;0.93;;;12.40;98.80;;;;;;5071383;28;20439;-59
2021/03/27 01:27:00;;;;;;;1.57;0.30;;;12.40;98.80;;;;;;5071253;28;20433;-60
2021/03/27 01:29:46;;;;;;;8.30;3.97;;;12.30;98.90;;;;;;5072229;28;20484;-58
2021/03/27 01:32:22;;;;;;;1.53;0.20;;;12.30;98.80;;;;;;5067596;28;20510;-60
2021/03/27 01:35:06;;;;;;;1.73;0.83;;;12.20;98.90;;;;;;5070636;28;20434;-60
2021/03/27 01:37:53;;;;;;;1.50;0.20;;;12.20;99.20;;;;;;5066100;28;20470;-60
2021/03/27 01:40:39;;;;;;;1.50;0.20;;;12.20;99.30;;;;;;5073587;28;20458;-59
2021/03/27 01:43:27;;;;;;;1.60;0.20;;;12.10;99.50;;;;;;5072109;28;20506;-58
2021/03/27 01:46:19;;;;;;;7.30;3.27;;;12.10;99.70;;;;;;5070976;28;20431;-58
2021/03/27 01:49:03;;;;;;;2.00;0.73;;;12.10;99.70;;;;;;5067613;28;20439;-59
2021/03/27 01:51:58;;;;;;;1.50;0.20;;;12.00;99.80;;;;;;5069654;28;20984;-59
2021/03/27 01:54:48;;;;;;;4.33;1.60;;;12.00;99.90;;;;;;5072460;28;20474;-59
2021/03/27 01:57:33;;;;;;;1.97;0.97;;;11.90;99.90;;;;;;5073095;28;20462;-59
2021/03/27 02:00:16;;;;;;;2.43;1.33;;;11.90;99.90;;;;;;5072162;28;20450;-59
2021/03/27 02:02:56;;;;;;;3.70;2.50;;;11.90;99.90;;;;;;5053585;28;20430;-58
2021/03/27 02:05:33;;;;;;;1.93;1.00;;;11.80;99.90;;;;;;5071838;28;20442;-59
2021/03/27 02:08:18;;;;;;;4.73;2.63;;;11.80;99.90;;;;;;5055729;28;20473;-59
2021/03/27 02:11:07;;;;;;;5.50;4.03;;;11.80;99.90;;;;;;5070899;28;20553;-59
2021/03/27 02:13:43;;;;;;;9.83;2.57;;;11.80;99.90;;;;;;5075172;28;20446;-60
2021/03/27 02:16:27;;;;;;;3.17;1.73;;;11.80;99.90;;;;;;5065749;28;20506;-59
2021/03/27 02:19:36;;;;;;;2.80;1.67;;;11.80;99.90;;;;;;5071242;28;20505;-59
2021/03/27 02:22:20;;;;;;;1.60;0.30;;;11.70;99.90;;;;;;5049688;28;20435;-59
2021/03/27 02:24:51;;;;;;;4.47;2.97;;;11.70;99.90;;;;;;5074099;28;20422;-59
2021/03/27 02:27:28;;;;;;;2.33;0.83;;;11.60;99.90;;;;;;5068866;28;20439;-59
2021/03/27 02:30:26;;;;;;;4.23;1.53;;;11.60;99.90;;;;;;5068468;28;20495;-59
2021/03/27 02:32:55;;;;;;;1.60;0.30;;;11.60;99.90;;;;;;5054995;28;20435;-59
2021/03/27 02:35:35;;;;;;;4.07;3.27;;;11.50;99.90;;;;;;5071111;28;20937;-58
2021/03/27 02:38:29;;;;;;;4.07;1.47;;;11.50;99.90;;;;;;5067915;28;20973;-59
2021/03/27 02:41:04;;;;;;;1.57;0.20;;;11.50;99.90;;;;;;5072539;28;20553;-58
2021/03/27 02:43:39;;;;;;;4.00;1.80;;;11.60;99.90;;;;;;5071547;28;20514;-59
2021/03/27 02:46:11;;;;;;;2.07;0.63;;;11.60;99.90;;;;;;5068869;28;20470;-59
2021/03/27 02:48:48;;;;;;;2.20;0.97;;;11.70;99.90;;;;;;5072616;28;20431;-59
2021/03/27 02:51:25;;;;;;;1.60;0.20;;;11.80;99.90;;;;;;5071495;28;20434;-59
2021/03/27 02:53:58;;;;;;;4.43;1.93;;;11.80;99.90;;;;;;5069214;28;20435;-59
2021/03/27 02:56:43;;;;;;;4.73;2.43;;;11.90;99.90;;;;;;5064623;28;20454;-59
2021/03/27 02:59:46;;;;;;;2.97;1.33;;;11.90;99.90;;;;;;5073126;28;20455;-59
2021/03/27 03:02:19;;;;;;;2.00;0.70;;;11.90;99.90;;;;;;5069914;28;20496;-59
2021/03/27 03:05:10;;;;;;;3.10;1.77;;;11.90;99.90;;;;;;5069362;28;20508;-59
2021/03/27 03:07:41;;;;;;;2.97;2.03;;;12.00;99.90;;;;;;5072186;28;20447;-59
2021/03/27 03:10:42;;;;;;;3.53;2.30;;;11.90;99.90;;;;;;5071098;28;20455;-59
2021/03/27 03:13:40;;;;;;;3.20;1.83;;;11.90;99.90;;;;;;5014477;28;20464;-59
2021/03/27 03:16:30;;;;;;;6.00;3.23;;;11.90;99.90;;;;;;5070623;28;20442;-59
2021/03/27 03:19:28;;;;;;;3.43;1.40;;;11.80;99.90;;;;;;5052873;28;20439;-59
2021/03/27 03:22:14;;;;;;;4.77;1.60;;;11.80;99.90;;;;;;5068748;28;20523;-59
2021/03/27 03:25:06;;;;;;;3.30;1.40;;;11.70;99.90;;;;;;5066798;28;20481;-59
2021/03/27 03:27:49;;;;;;;2.67;1.80;;;11.70;99.90;;;;;;5069301;28;20514;-59
2021/03/27 03:30:36;;;;;;;2.40;1.23;;;11.60;99.90;;;;;;5071362;28;20446;-59
2021/03/27 03:33:22;;;;;;;2.80;0.93;;;11.60;99.90;;;;;;5072782;28;20451;-59
2021/03/27 03:36:05;;;;;;;4.80;2.00;;;11.40;99.90;;;;;;5071492;28;20460;-59
2021/03/27 03:38:36;;;;;;;1.97;0.83;;;11.30;99.90;;;;;;5065183;28;20467;-59
2021/03/27 03:41:16;;;;;;;2.40;1.27;;;11.00;99.90;;;;;;5071940;28;20818;-59
2021/03/27 03:43:55;;;;;;;2.97;0.60;;;10.60;99.90;;;;;;5070048;28;20434;-59
2021/03/27 03:46:27;;;;;;;2.00;0.40;;;10.40;99.90;;;;;;5072729;28;20450;-60
2021/03/27 03:49:10;;;;;;;1.50;0.20;;;10.30;99.90;;;;;;5072234;28;20436;-59
2021/03/27 03:52:09;;;;;;;1.93;0.60;;;10.10;99.90;;;;;;5071799;28;20442;-59
2021/03/27 03:55:06;;;;;;;1.80;0.40;;;9.90;99.90;;;;;;5073054;28;20786;-59
2021/03/27 03:57:31;;;;;;;1.80;0.40;;;9.90;99.90;;;;;;5073521;28;20466;-59
2021/03/27 04:00:21;;;;;;;4.17;0.60;;;9.70;99.90;;;;;;5076052;28;20461;-59
2021/03/27 04:03:14;;;;;;;3.23;0.30;;;9.70;99.90;;;;;;5074686;28;20675;-59
2021/03/27 04:05:46;;;;;;;2.10;0.63;;;9.60;99.90;;;;;;5074866;28;20434;-59
2021/03/27 04:08:19;;;;;;;1.60;0.30;;;9.60;99.90;;;;;;5073848;28;20433;-59
2021/03/27 04:10:47;;;;;;;1.80;0.30;;;9.40;99.90;;;;;;5075921;28;20525;-59
2021/03/27 04:13:44;;;;;;;2.03;0.40;;;9.20;99.90;;;;;;5073576;28;20513;-59
2021/03/27 04:16:20;;;;;;;1.53;0.20;;;9.10;99.90;;;;;;5073480;28;20455;-59
2021/03/27 04:19:09;;;;;;;1.60;0.30;;;9.10;99.90;;;;;;5075200;28;20888;-59
2021/03/27 04:21:41;;;;;;;1.67;0.27;;;9.20;99.90;;;;;;5075688;28;20441;-59
2021/03/27 04:24:13;;;;;;;1.60;0.30;;;9.00;99.90;;;;;;5068985;28;20439;-59
2021/03/27 04:27:04;;;;;;;1.50;0.20;;;8.90;99.90;;;;;;5070421;28;20441;-60
2021/03/27 04:30:06;;;;;;;1.60;0.30;;;8.90;99.90;;;;;;5072548;28;20411;-60
2021/03/27 04:33:02;;;;;;;1.60;0.30;;;8.90;99.90;;;;;;5033698;28;20446;-59
2021/03/27 04:35:39;;;;;;;1.60;0.30;;;9.00;99.90;;;;;;5073309;28;20575;-59
2021/03/27 04:38:20;;;;;;;1.70;0.30;;;8.80;99.90;;;;;;5072288;28;20968;-59
2021/03/27 04:41:08;;;;;;;1.60;0.30;;;8.70;99.90;;;;;;5073211;28;20439;-59
2021/03/27 04:44:01;;;;;;;1.80;0.47;;;8.60;99.90;;;;;;5073778;28;20442;-59
2021/03/27 04:46:49;;;;;;;1.60;0.30;;;8.50;99.90;;;;;;5069145;28;20941;-59
2021/03/27 04:49:15;;;;;;;1.57;0.30;;;8.40;99.90;;;;;;5073741;28;20435;-59
2021/03/27 04:52:06;;;;;;;1.60;0.20;;;8.30;99.90;;;;;;5070678;28;20945;-59
2021/03/27 04:54:58;;;;;;;1.50;0.20;;;8.30;99.90;;;;;;5072068;28;20219;-59
2021/03/27 04:57:41;;;;;;;1.60;0.30;;;8.20;99.90;;;;;;5070154;28;20939;-59
2021/03/27 05:00:27;;;;;;;2.87;0.30;;;8.10;99.90;;;;;;5072559;28;20977;-59
2021/03/27 05:03:22;;;;;;;1.85;0.28;;;8.00;99.90;;;;;;5074168;28;20441;-59
2021/03/27 05:06:08;;;;;;;1.70;0.30;;;8.00;99.90;;;;;;5068236;28;20197;-59
2021/03/27 05:09:00;;;;;;;5.32;0.65;;;7.90;99.90;;;;;;5067433;28;20442;-59
2021/03/27 05:11:52;;;;;;;1.70;0.30;;;7.90;99.90;;;;;;5070151;28;20220;-59
2021/03/27 05:14:33;;;;;;;2.38;0.70;;;7.80;99.90;;;;;;5073534;28;20180;-59
2021/03/27 05:17:21;;;;;;;1.80;0.43;;;7.80;99.90;;;;;;5073211;28;20252;-60
2021/03/27 05:19:52;;;;;;;2.17;0.30;;;7.80;99.90;;;;;;5074958;28;20201;-59
2021/03/27 05:22:20;;;;;;;1.70;0.30;;;7.70;99.90;;;;;;5076063;28;20269;-59
2021/03/27 05:25:23;;;;;;;1.75;0.40;;;7.70;99.90;;;;;;5074978;28;20181;-59
2021/03/27 05:28:13;;;;;;;1.70;0.40;;;7.70;99.90;;;;;;5072593;28;20177;-60
2021/03/27 05:30:49;;;;;;;1.58;0.25;;;7.60;99.90;;;;;;5079560;28;20205;-60
2021/03/27 05:33:45;;;;;;;2.08;0.40;;;7.60;99.90;;;;;;5068617;28;20180;-59
2021/03/27 05:36:28;;;;;;;1.60;0.38;;;7.60;99.90;;;;;;5072185;28;20187;-60
2021/03/27 05:39:13;;;;;;;1.60;0.40;;;7.50;99.90;;;;;;5070639;28;20173;-60
2021/03/27 05:41:59;;;;;;;1.70;0.30;;;7.50;99.90;;;;;;5072501;28;20618;-59
2021/03/27 05:44:46;;;;;;;1.55;0.20;;;7.50;99.90;;;;;;5067300;28;20229;-60
2021/03/27 05:47:49;;;;;;;1.80;0.50;;;7.50;99.90;;;;;;5070865;28;20200;-59
2021/03/27 05:50:41;;;;;;;1.60;0.30;;;7.50;99.90;;;;;;5071556;28;20220;-59
2021/03/27 05:53:28;;;;;;;1.60;0.30;;;7.40;99.90;;;;;;5073453;28;20214;-59
2021/03/27 05:56:14;;;;;;;1.77;0.55;;;7.40;99.90;;;;;;5069656;28;20272;-59
2021/03/27 05:58:46;;;;;;;2.35;0.30;;;7.40;99.90;;;;;;5069853;28;20207;-59
2021/03/27 06:01:43;;;;;;;1.50;0.20;;;7.40;99.90;;;;;;5070738;28;20193;-59
2021/03/27 06:04:36;;;;;;;1.88;0.60;;;7.40;99.90;;;;;;5071700;28;20292;-60
2021/03/27 06:07:20;;;;;;;2.78;0.32;;;7.40;99.90;;;;;;5080179;28;20180;-59
2021/03/27 06:10:09;;;;;;;2.95;0.50;;;7.40;99.90;;;;;;5071709;28;20698;-59
2021/03/27 06:13:08;;;;;;;3.08;0.50;;;7.40;99.90;;;;;;5073498;28;20750;-58
2021/03/27 06:16:11;;;;;;;2.17;0.40;;;7.50;99.90;;;;;;5088887;28;20177;-60
2021/03/27 06:19:04;;;;;;;1.80;0.50;;;7.50;99.90;;;;;;5091603;28;20184;-61
2021/03/27 06:21:36;;;;;;;1.60;0.32;;;7.60;99.90;;;;;;5093599;28;20172;-61
2021/03/27 06:24:37;;;;;;;2.85;0.50;;;7.60;99.90;;;;;;5095266;28;20199;-62
2021/03/27 06:27:25;;;;;;;2.22;0.30;;;7.60;99.90;;;;;;5091951;28;20195;-59
2021/03/27 06:30:15;;;;;;;1.70;0.40;;;7.60;99.90;;;;;;5077565;28;20200;-58
2021/03/27 06:33:01;;;;;;;1.77;0.50;;;7.70;99.90;;;;;;5073571;28;20195;-60
2021/03/27 06:36:00;;;;;;;1.70;0.47;;;7.70;99.90;;;;;;5071222;28;20192;-58
2021/03/27 06:39:09;;;;;;;2.80;0.88;;;7.70;99.90;;;;;;5064203;28;20188;-59
2021/03/27 06:41:55;;;;;;;1.80;0.70;;;7.60;99.90;;;;;;5068809;28;20204;-58
2021/03/27 06:44:35;;;;;;;1.52;0.20;;;7.80;99.90;;;;;;5074976;28;20442;-59
2021/03/27 06:47:28;;;;;;;1.70;0.43;;;7.80;99.90;;;;;;5082691;28;20173;-60
2021/03/27 06:50:24;;;;;;;1.60;0.30;;;7.80;99.90;;;;;;5086248;28;20477;-59
2021/03/27 06:53:07;;;;;;;1.70;0.40;;;7.80;99.90;;;;;;5092209;28;20498;-60
2021/03/27 06:55:56;;;;;;;1.53;0.20;;;7.70;99.90;;;;;;5088746;28;21204;-59
2021/03/27 06:58:55;;;;;;;1.55;0.20;;;7.60;99.90;;;;;;5071305;28;20516;-59
2021/03/27 07:01:36;;;;;;;1.80;0.52;;;7.70;99.90;;;;;;5073424;28;20199;-58
2021/03/27 07:04:32;;;;;;;1.55;0.20;;;7.70;99.90;;;;;;5073518;28;20177;-59
2021/03/27 07:07:25;;;;;;;1.50;0.20;;;7.60;99.90;;;;;;5054349;28;20181;-60
2021/03/27 07:10:28;;;;;;;1.70;0.43;;;7.60;99.90;;;;;;5068519;28;20486;-61
2021/03/27 07:13:02;;;;;;;1.60;0.30;;;7.60;99.90;;;;;;5068934;28;20562;-59
2021/03/27 07:15:33;;;;;;;1.60;0.20;;;7.60;99.90;;;;;;5079481;28;20477;-59
2021/03/27 07:18:36;;;;;;;1.95;0.82;;;7.60;99.90;;;;;;5068892;28;20751;-59
2021/03/27 07:21:34;;;;;;;2.70;0.57;;;7.70;99.90;;;;;;5067202;28;20256;-58
2021/03/27 07:24:14;;;;;;;2.00;0.73;;;7.90;99.90;;;;;;5070690;28;20204;-59
2021/03/27 07:27:15;;;;;;;1.70;0.40;;;8.00;99.20;;;;;;5070660;28;20430;-59
2021/03/27 07:29:49;;;;;;;1.50;0.20;;;8.10;99.70;;;;;;5070615;28;20204;-59
2021/03/27 07:32:45;;;;;;;2.00;0.50;;;8.10;99.90;;;;;;5069007;28;20534;-59
2021/03/27 07:35:23;;;;;;;2.00;0.30;;;8.10;99.20;;;;;;5072757;28;20840;-59
2021/03/27 07:38:18;;;;;;;1.60;0.30;;;8.10;99.90;;;;;;5069660;28;20480;-58
2021/03/27 07:41:12;;;;;;;1.60;0.30;;;8.10;99.60;;;;;;5061828;28;20454;-60
2021/03/27 07:44:01;;;;;;;2.10;0.40;;;8.20;99.80;;;;;;5069781;28;20442;-59
2021/03/27 07:47:04;;;;;;;1.90;0.40;;;8.20;99.50;;;;;;5061333;28;20445;-59
2021/03/27 07:50:10;;;;;;;1.60;0.30;;;8.20;99.50;;;;;;5069633;28;20450;-59
2021/03/27 07:52:58;;;;;;;2.00;0.63;;;8.20;98.80;;;;;;5073197;28;20430;-59
2021/03/27 07:55:52;;;;;;;1.90;0.80;;;8.20;97.60;;;;;;5064957;28;20438;-59
2021/03/27 07:58:37;;;;;;;2.50;1.10;;;8.10;96.50;;;;;;5072751;28;20470;-59
2021/03/27 08:01:28;;;;;;;4.33;1.00;;;8.00;96.70;;;;;;5069090;28;20458;-60
2021/03/27 08:04:20;;;;;;;1.70;0.40;;;8.00;96.40;;;;;;5065831;28;20904;-60
2021/03/27 08:07:02;;;;;;;1.50;0.20;;;8.10;96.60;;;;;;5035880;28;20469;-61
2021/03/27 08:09:49;;;;;;;1.60;0.20;;;8.10;96.60;;;;;;5066659;28;20504;-60
2021/03/27 08:12:51;;;;;;;5.73;0.93;;;8.10;96.50;;;;;;5073204;28;20794;-61
2021/03/27 08:15:42;;;;;;;1.53;0.30;;;8.20;96.60;;;;;;5076899;28;21006;-61
2021/03/27 08:18:33;;;;;;;3.30;0.70;;;8.30;96.80;;;;;;5066389;28;20462;-60
2021/03/27 08:21:03;;;;;;;2.10;0.80;;;8.30;96.90;;;;;;5067394;28;20463;-60
2021/03/27 08:23:32;;;;;;;4.33;1.50;;;8.30;97.20;;;;;;5070634;28;20948;-59
2021/03/27 08:26:03;;;;;;;2.27;0.93;;;8.30;96.80;;;;;;5067282;28;20472;-60
2021/03/27 08:28:50;;;;;;;1.52;0.20;;;8.30;96.90;;;;;;5065220;28;20563;-60
2021/03/27 08:31:36;;;;;;;4.43;1.67;;;8.30;96.10;;;;;;5065182;28;20231;-60
2021/03/27 08:34:07;;;;;;;2.27;0.40;;;8.30;95.50;;;;;;5071087;28;20200;-59
2021/03/27 08:37:01;;;;;;;1.70;0.50;;;8.50;95.20;;;;;;5065032;28;20896;-60
2021/03/27 08:39:45;;;;;;;2.80;1.20;;;8.60;94.80;;;;;;5070539;28;20518;-60
2021/03/27 08:42:25;;;;;;;4.20;1.50;;;8.60;94.10;;;;;;5069805;28;20775;-59
2021/03/27 08:45:18;;;;;;;1.90;0.50;;;8.60;93.80;;;;;;5073913;28;20494;-60
2021/03/27 08:47:52;;;;;;;11.70;1.90;;;8.60;93.90;;;;;;5069816;28;20513;-60
2021/03/27 08:50:37;;;;;;;3.17;1.00;;;8.70;93.90;;;;;;5066745;28;20829;-63
2021/03/27 08:53:39;;;;;;;2.43;0.97;;;8.70;93.80;;;;;;5073244;28;20434;-60
2021/03/27 08:56:33;;;;;;;4.13;1.30;;;8.70;93.70;;;;;;5072090;28;20435;-60
2021/03/27 08:59:43;;;;;;;1.50;0.20;;;8.70;93.90;;;;;;5074155;28;20451;-60
2021/03/27 09:02:53;;;;;;;1.60;0.30;;;8.90;94.00;;;;;;5073212;28;20767;-61
2021/03/27 09:05:25;;;;;;;3.23;0.53;;;9.00;93.50;;;;;;5083922;28;20499;-61
2021/03/27 09:08:16;;;;;;;4.63;1.27;;;8.90;93.40;;;;;;5084397;28;20494;-60
2021/03/27 09:11:18;;;;;;;2.33;0.80;;;8.80;93.50;;;;;;5076410;28;20489;-59
2021/03/27 09:14:16;;;;;;;1.50;0.20;;;8.80;93.60;;;;;;5073095;28;20422;-60
2021/03/27 09:17:19;;;;;;;3.43;1.20;;;9.00;93.30;;;;;;5072155;28;20467;-60
2021/03/27 09:20:20;;;;;;;4.07;1.47;;;9.20;93.20;;;;;;5074488;28;20955;-61
2021/03/27 09:23:14;;;;;;;2.90;1.10;;;9.30;92.90;;;;;;5055522;28;20985;-60
2021/03/27 09:26:16;;;;;;;3.33;1.30;;;9.40;92.00;;;;;;5072554;28;20458;-60
2021/03/27 09:29:23;;;;;;;2.00;0.60;;;9.30;91.70;;;;;;5069298;28;20442;-61
2021/03/27 09:32:07;;;;;;;7.50;1.70;;;9.40;91.60;;;;;;5067698;28;20450;-60
2021/03/27 09:35:10;;;;;;;1.80;0.50;;;9.40;91.10;;;;;;5066481;28;20502;-60
2021/03/27 09:37:35;;;;;;;2.30;0.60;;;9.50;90.70;;;;;;5065293;28;20479;-61
2021/03/27 09:40:16;;;;;;;7.10;0.93;;;9.50;90.60;;;;;;5073624;28;20454;-61
2021/03/27 09:43:12;;;;;;;8.50;1.47;;;9.50;90.70;;;;;;5070988;28;20173;-61
2021/03/27 09:45:57;;;;;;;7.30;1.43;;;9.40;90.40;;;;;;5072241;28;20453;-62
2021/03/27 09:48:41;;;;;;;6.17;0.83;;;9.40;90.60;;;;;;5074373;28;20435;-61
2021/03/27 09:51:19;;;;;;;11.77;2.23;;;9.40;90.80;;;;;;5072306;28;20521;-61
2021/03/27 09:54:17;;;;;;;1.60;0.50;;;9.50;90.80;;;;;;5068088;28;20438;-60
2021/03/27 09:57:03;;;;;;;3.30;0.90;;;9.60;90.80;;;;;;5087886;28;21100;-61
2021/03/27 10:00:12;;;;;;;2.90;1.00;;;9.90;90.80;;;;;;5081144;28;20403;-62
2021/03/27 10:02:39;;;;;;;6.87;0.73;;;10.00;89.80;;;;;;5092019;28;20423;-61
2021/03/27 10:05:15;;;;;;;2.80;0.50;;;10.00;89.40;;;;;;5092700;28;20488;-61
2021/03/27 10:07:56;;;;;;;2.50;1.17;;;9.90;90.40;;;;;;5094634;28;20486;-61
2021/03/27 10:10:56;;;;;;;1.70;0.50;;;9.80;89.60;;;;;;5080198;28;20549;-61
2021/03/27 10:14:02;;;;;;;2.70;0.93;;;9.70;89.40;;;;;;5087187;28;20509;-61
2021/03/27 10:16:49;;;;;;;3.40;0.80;;;9.70;89.20;;;;;;5090112;28;20817;-64
2021/03/27 10:19:26;;;;;;;2.10;1.03;;;9.90;89.40;;;;;;5085823;28;20465;-62
2021/03/27 10:22:07;;;;;;;4.43;1.27;;;9.90;86.80;;;;;;5086758;28;20470;-61
2021/03/27 10:24:47;;;;;;;4.00;0.80;;;9.90;87.30;;;;;;5085992;28;20526;-61
2021/03/27 10:27:44;;;;;;;5.93;0.87;;;9.70;87.30;;;;;;5085314;28;20784;-61
2021/03/27 10:30:33;;;;;;;3.10;1.03;;;9.60;89.60;;;;;;5086617;28;20466;-61
2021/03/27 10:33:18;;;;;;;2.30;0.90;;;9.60;90.80;;;;;;5080702;28;20485;-61
2021/03/27 10:35:53;;;;;;;2.73;1.03;;;9.60;91.40;;;;;;5076462;28;20419;-61
2021/03/27 10:38:53;;;;;;;2.93;1.10;;;9.30;93.60;;;;;;5071740;28;20545;-61
2021/03/27 10:41:30;;;;;;;1.57;0.27;;;9.00;98.10;;;;;;5073457;28;20541;-61
2021/03/27 10:44:16;;;;;;;1.80;0.43;;;8.70;99.90;;;;;;5077724;28;20439;-61
2021/03/27 10:46:47;;;;;;;2.00;0.77;;;8.80;99.90;;;;;;5085732;28;20457;-61
2021/03/27 10:49:33;;;;;;;4.07;0.70;;;8.90;99.90;;;;;;5089547;28;20431;-62
2021/03/27 10:52:24;;;;;;;3.30;0.90;;;8.70;99.90;;;;;;5088899;28;20446;-61
2021/03/27 10:55:21;;;;;;;5.07;1.20;;;8.70;99.90;;;;;;5075928;28;20957;-61
2021/03/27 10:57:50;;;;;;;2.93;0.80;;;8.70;99.90;;;;;;5083157;28;20463;-61
2021/03/27 11:00:30;;;;;;;1.50;0.20;;;8.80;99.90;;;;;;5071255;28;20452;-61
2021/03/27 11:03:23;;;;;;;2.60;1.10;;;9.00;99.90;;;;;;5076170;28;20517;-60
2021/03/27 11:06:17;;;;;;;2.87;0.67;;;9.20;99.50;;;;;;5079489;28;20435;-61
2021/03/27 11:09:20;;;;;;;3.20;0.87;;;9.40;98.50;;;;;;5074698;28;20430;-61
2021/03/27 11:12:13;;;;;;;1.60;0.30;;;9.50;97.60;;;;;;5069461;28;21089;-61
2021/03/27 11:14:58;;;;;;;2.20;0.53;;;9.80;97.60;;;;;;5072585;28;20430;-60
2021/03/27 11:17:39;;;;;;;3.33;0.70;;;9.90;97.50;;;;;;5073232;28;20524;-61
2021/03/27 11:20:16;;;;;;;1.83;0.50;;;10.00;96.80;;;;;;5071027;28;20611;-61
2021/03/27 11:23:14;;;;;;;1.50;0.20;;;10.10;95.60;;;;;;5072409;28;20418;-60
2021/03/27 11:25:52;;;;;;;1.90;0.60;;;10.20;94.10;;;;;;5073586;28;20442;-60
2021/03/27 11:28:24;;;;;;;3.80;0.80;;;10.20;92.50;;;;;;5074523;28;21121;-60
2021/03/27 11:31:23;;;;;;;2.13;0.60;;;10.30;90.20;;;;;;5070781;28;20491;-60
2021/03/27 11:34:03;;;;;;;2.57;0.93;;;10.20;90.00;;;;;;5065705;28;20511;-60
2021/03/27 11:36:40;;;;;;;2.53;1.00;;;10.10;90.60;;;;;;5069651;28;20470;-60
2021/03/27 11:39:30;;;;;;;1.50;0.27;;;10.00;91.20;;;;;;5071116;28;20443;-60
2021/03/27 11:42:11;;;;;;;1.50;0.20;;;9.90;92.60;;;;;;5070536;28;20483;-61
2021/03/27 11:45:00;;;;;;;1.80;0.60;;;9.90;92.20;;;;;;5073457;28;20431;-62
2021/03/27 11:48:08;;;;;;;1.50;0.20;;;9.90;92.70;;;;;;5070673;28;20525;-61
2021/03/27 11:50:55;;;;;;;2.37;0.70;;;10.20;92.20;;;;;;5072739;28;20459;-61
2021/03/27 11:53:36;;;;;;;1.53;0.30;;;10.20;89.40;;;;;;5074545;28;20430;-60
2021/03/27 11:56:11;;;;;;;3.07;1.43;;;10.10;89.10;;;;;;5070927;28;20929;-60
2021/03/27 12:01:57;;;;;;;1.80;0.60;;;9.90;91.00;;;;;;5071037;28;20429;-61
2021/03/27 12:04:52;;;;;;;3.60;1.30;;;10.00;89.10;;;;;;5070751;28;20442;-61
2021/03/27 12:07:29;;;;;;;1.50;0.20;;;10.00;87.90;;;;;;5079613;28;20427;-61
2021/03/27 12:10:20;;;;;;;2.23;0.37;;;10.10;86.10;;;;;;5084220;28;20472;-60
2021/03/27 12:13:01;;;;;;;1.70;0.50;;;10.10;84.80;;;;;;5072093;28;20629;-60
2021/03/27 12:16:08;;;;;;;3.80;1.30;;;10.10;84.90;;;;;;5073580;28;20435;-60
2021/03/27 12:19:12;;;;;;;2.53;0.40;;;9.90;85.50;;;;;;5074045;28;20481;-61
2021/03/27 12:21:53;;;;;;;2.43;0.50;;;9.90;87.60;;;;;;5078589;28;20458;-60
2021/03/27 12:24:30;;;;;;;1.90;0.60;;;9.80;90.00;;;;;;5070009;28;20450;-60
2021/03/27 12:27:19;;;;;;;2.37;0.90;;;9.80;91.00;;;;;;5074094;28;20433;-61
2021/03/27 12:29:48;;;;;;;2.90;1.10;;;9.60;91.60;;;;;;5074711;28;20460;-61
2021/03/27 12:32:43;;;;;;;3.00;0.70;;;9.80;91.80;;;;;;5075705;28;20442;-61
2021/03/27 12:35:35;;;;;;;1.70;0.40;;;10.00;91.00;;;;;;5073316;28;20449;-61
2021/03/27 12:38:06;;;;;;;7.93;3.43;;;10.20;88.00;;;;;;5072568;28;20993;-61
2021/03/27 12:40:37;;;;;;;2.70;1.13;;;10.50;83.70;;;;;;5076029;28;20459;-61
2021/03/27 12:43:10;;;;;;;5.13;1.40;;;10.50;81.30;;;;;;5073154;28;20441;-61
2021/03/27 12:45:38;;;;;;;7.40;1.60;;;10.60;81.40;;;;;;5071062;28;20447;-62
2021/03/27 12:48:37;;;;;;;1.50;0.30;;;10.50;81.70;;;;;;5075476;28;20474;-60
2021/03/27 12:51:33;;;;;;;2.43;0.80;;;10.60;82.60;;;;;;5073537;28;20527;-60
2021/03/27 12:54:11;;;;;;;2.23;0.47;;;10.60;80.90;;;;;;5072565;28;20443;-60
2021/03/27 12:56:42;;;;;;;2.27;0.63;;;10.60;78.40;;;;;;5071875;28;20474;-59
2021/03/27 12:59:23;;;;;;;2.30;0.87;;;10.60;79.00;;;;;;5071929;28;20798;-59
2021/03/27 13:02:07;;;;;;;1.93;0.50;;;10.50;80.30;;;;;;5073619;28;20438;-60
2021/03/27 13:05:05;;;;;;;2.63;0.43;;;10.50;80.80;;;;;;5073383;28;20438;-60
2021/03/27 13:07:35;;;;;;;1.77;0.50;;;10.60;81.00;;;;;;5064374;28;20530;-61
2021/03/27 13:10:15;;;;;;;6.70;1.90;;;11.20;81.40;;;;;;5074942;28;20511;-60
2021/03/27 13:13:02;;;;;;;2.70;0.77;;;11.20;80.40;;;;;;5074961;28;20438;-60
2021/03/27 13:15:49;;;;;;;2.30;0.50;;;11.10;78.40;;;;;;5072729;28;20534;-60
2021/03/27 13:18:22;;;;;;;1.60;0.27;;;11.20;79.10;;;;;;5074566;28;20494;-61
2021/03/27 13:21:13;;;;;;;3.57;0.70;;;11.20;77.90;;;;;;5074921;28;20480;-60
2021/03/27 13:24:03;;;;;;;1.70;0.60;;;10.90;76.00;;;;;;5071871;28;20435;-60
2021/03/27 13:26:31;;;;;;;2.10;0.70;;;10.70;77.50;;;;;;5077105;28;20438;-60
2021/03/27 13:29:04;;;;;;;2.33;0.90;;;10.80;76.90;;;;;;5071757;28;20465;-61
2021/03/27 13:31:49;;;;;;;1.90;0.47;;;10.70;75.10;;;;;;5074729;28;20477;-61
2021/03/27 13:34:21;;;;;;;4.30;0.87;;;10.70;75.70;;;;;;5053539;28;20447;-61
2021/03/27 13:37:05;;;;;;;4.63;1.17;;;10.60;76.80;;;;;;5053472;28;20470;-61
2021/03/27 13:39:54;;;;;;;1.90;0.47;;;10.50;77.70;;;;;;5076026;28;20443;-61
2021/03/27 13:42:37;;;;;;;1.60;0.40;;;10.40;78.50;;;;;;5063602;28;20468;-61
2021/03/27 13:45:22;;;;;;;1.50;0.20;;;10.50;78.90;;;;;;5075452;28;20438;-61
2021/03/27 13:48:11;;;;;;;2.30;0.83;;;10.80;79.20;;;;;;5073263;28;20427;-60
2021/03/27 13:50:39;;;;;;;2.90;0.93;;;11.00;77.20;;;;;;5069775;28;20504;-60
2021/03/27 13:53:08;;;;;;;1.90;0.80;;;10.90;77.80;;;;;;5069309;28;20443;-60
2021/03/27 13:56:02;;;;;;;1.60;0.40;;;10.90;79.20;;;;;;5074503;28;20441;-61
2021/03/27 13:58:54;;;;;;;7.33;1.47;;;10.80;81.00;;;;;;5043813;28;20478;-61
2021/03/27 14:02:10;;;;;;;3.00;0.60;;;10.80;82.70;;;;;;5071242;28;20458;-60
2021/03/27 14:04:40;;;;;;;7.07;1.10;;;10.70;83.70;;;;;;5066459;28;20442;-60
2021/03/27 14:07:32;;;;;;;5.00;0.40;;;10.80;84.50;;;;;;5071391;28;20442;-60
2021/03/27 14:10:13;;;;;;;1.50;0.20;;;10.70;84.60;;;;;;5073922;28;20550;-61
2021/03/27 14:12:45;;;;;;;1.50;0.20;;;10.80;86.10;;;;;;5070957;28;20470;-61
2021/03/27 14:15:32;;;;;;;2.10;0.60;;;10.80;87.40;;;;;;5073727;28;20496;-61
2021/03/27 14:18:22;;;;;;;1.70;0.60;;;10.70;86.70;;;;;;5071462;28;20462;-61
2021/03/27 14:21:03;;;;;;;1.90;0.50;;;10.50;87.20;;;;;;5073771;28;20458;-61
2021/03/27 14:23:36;;;;;;;1.47;0.20;;;10.60;85.60;;;;;;5074715;28;20460;-61
2021/03/27 14:26:32;;;;;;;1.70;0.33;;;11.00;85.70;;;;;;5074953;28;20442;-61
2021/03/27 14:29:10;;;;;;;5.13;1.07;;;10.90;85.90;;;;;;5092172;28;20430;-66